createdAt,value
2022-11-05T00:00:33.245Z,89.27
2022-11-05T00:03:19.028Z,89.58
2022-11-05T00:06:06.439Z,89.24
2022-11-05T00:08:52.253Z,89.47
2022-11-05T00:11:40.306Z,89.30
2022-11-05T00:14:25.721Z,89.70
2022-11-05T00:16:55.125Z,89.97
2022-11-05T00:19:23.122Z,89.61
2022-11-05T00:22:08.712Z,89.48
2022-11-05T00:24:53.954Z,90.10
2022-11-05T00:27:21.976Z,90.14
2022-11-05T00:29:50.091Z,90.34
2022-11-05T00:32:19.797Z,90.49
2022-11-05T00:34:48.859Z,91.24
2022-11-05T00:37:16.824Z,90.95
2022-11-05T00:39:44.844Z,91.07
2022-11-05T00:42:30.348Z,91.36
2022-11-05T00:45:02.035Z,91.31
2022-11-05T00:47:50.522Z,91.24
2022-11-05T00:50:19.372Z,91.22
2022-11-05T00:52:56.705Z,91.06
2022-11-05T00:55:26.110Z,91.20
2022-11-05T00:57:54.155Z,91.04
2022-11-05T01:00:23.470Z,91.00
2022-11-05T01:02:52.929Z,90.45
2022-11-05T01:05:21.137Z,91.07
2022-11-05T01:07:49.121Z,91.16
2022-11-05T01:10:17.174Z,90.85
2022-11-05T01:12:45.293Z,91.34
2022-11-05T01:15:13.376Z,91.18
2022-11-05T01:17:41.345Z,91.10
2022-11-05T01:20:12.188Z,91.06
2022-11-05T01:22:40.346Z,91.33
2022-11-05T01:25:09.912Z,91.21
2022-11-05T01:27:38.452Z,91.67
2022-11-05T01:30:08.336Z,91.14
2022-11-05T01:32:37.375Z,91.15
2022-11-05T01:35:06.001Z,90.97
2022-11-05T01:37:35.949Z,91.00
2022-11-05T01:40:04.666Z,91.26
2022-11-05T01:42:34.300Z,91.36
2022-11-05T01:45:05.241Z,91.67
2022-11-05T01:47:42.535Z,91.71
2022-11-05T01:50:22.216Z,91.52
2022-11-05T01:52:55.005Z,92.14
2022-11-05T01:55:29.812Z,91.67
2022-11-05T01:58:00.277Z,91.97
2022-11-05T02:01:15.899Z,92.40
2022-11-05T02:03:44.821Z,91.99
2022-11-05T02:06:14.343Z,91.91
2022-11-05T02:08:51.995Z,92.14
2022-11-05T02:11:20.947Z,91.88
2022-11-05T02:13:50.342Z,91.56
2022-11-05T02:16:29.663Z,92.11
2022-11-05T02:19:08.271Z,92.27
2022-11-05T02:22:11.061Z,92.18
2022-11-05T02:25:02.672Z,92.25
2022-11-05T02:27:49.813Z,91.84
2022-11-05T02:30:30.291Z,91.95
2022-11-05T02:33:15.122Z,91.90
2022-11-05T02:35:56.590Z,91.97
2022-11-05T02:38:36.173Z,91.30
2022-11-05T02:41:12.085Z,91.79
2022-11-05T02:43:49.069Z,91.84
2022-11-05T02:46:29.014Z,91.81
2022-11-05T02:49:01.028Z,92.04
2022-11-05T02:51:35.970Z,92.05
2022-11-05T02:54:11.891Z,91.81
2022-11-05T02:56:41.585Z,91.37
2022-11-05T02:59:09.561Z,91.12
2022-11-05T03:01:40.256Z,92.01
2022-11-05T03:04:13.260Z,91.81
2022-11-05T03:06:53.177Z,91.85
2022-11-05T03:09:50.523Z,91.35
2022-11-05T03:12:31.778Z,91.41
2022-11-05T03:15:09.214Z,91.13
2022-11-05T03:17:45.534Z,91.25
2022-11-05T03:20:20.539Z,91.43
2022-11-05T03:22:53.587Z,91.91
2022-11-05T03:25:23.837Z,91.33
2022-11-05T03:27:55.818Z,90.94
2022-11-05T03:30:25.220Z,91.19
2022-11-05T03:32:59.578Z,91.67
2022-11-05T03:35:31.611Z,91.28
2022-11-05T03:38:06.595Z,90.85
2022-11-05T03:40:37.635Z,90.88
2022-11-05T03:43:09.456Z,90.96
2022-11-05T03:45:41.591Z,90.54
2022-11-05T03:48:14.127Z,91.03
2022-11-05T03:50:47.580Z,90.79
2022-11-05T03:53:18.536Z,90.68
2022-11-05T03:55:55.687Z,90.72
2022-11-05T03:58:25.095Z,90.91
2022-11-05T04:00:54.235Z,90.39
2022-11-05T04:03:23.610Z,90.70
2022-11-05T04:06:06.145Z,91.29
2022-11-05T04:08:51.401Z,90.68
2022-11-05T04:11:36.583Z,90.87
2022-11-05T04:14:04.584Z,90.40
2022-11-05T04:16:50.065Z,90.31
2022-11-05T04:19:41.647Z,90.48
2022-11-05T04:22:27.018Z,90.15
2022-11-05T04:24:55.030Z,89.86
2022-11-05T04:27:25.182Z,90.29
2022-11-05T04:30:17.106Z,89.69
2022-11-05T04:32:56.782Z,90.32
2022-11-05T04:35:26.912Z,90.03
2022-11-05T04:37:54.972Z,89.23
2022-11-05T04:40:23.029Z,89.20
2022-11-05T04:42:51.024Z,89.56
2022-11-05T04:45:18.985Z,88.96
2022-11-05T04:47:46.989Z,89.04
2022-11-05T04:50:15.124Z,88.65
2022-11-05T04:52:45.387Z,88.75
2022-11-05T04:55:13.418Z,88.90
2022-11-05T04:57:41.633Z,88.54
2022-11-05T05:00:11.607Z,88.42
2022-11-05T05:02:41.693Z,88.48
2022-11-05T05:05:14.475Z,88.47
2022-11-05T05:07:44.334Z,88.11
2022-11-05T05:10:13.006Z,87.84
2022-11-05T05:12:41.946Z,87.78
2022-11-05T05:15:11.007Z,87.89
2022-11-05T05:17:39.045Z,88.18
2022-11-05T05:20:25.034Z,88.29
2022-11-05T05:22:55.286Z,87.58
2022-11-05T05:25:24.062Z,88.18
2022-11-05T05:27:52.234Z,87.98
2022-11-05T05:30:27.438Z,88.12
2022-11-05T05:32:55.461Z,87.75
2022-11-05T05:35:23.479Z,87.85
2022-11-05T05:37:58.013Z,88.18
2022-11-05T05:40:25.962Z,88.27
2022-11-05T05:42:55.358Z,87.56
2022-11-05T05:45:24.375Z,88.18
2022-11-05T05:47:52.361Z,88.01
2022-11-05T05:50:20.511Z,87.68
2022-11-05T05:52:53.281Z,87.65
2022-11-05T05:55:22.953Z,87.58
2022-11-05T05:57:51.011Z,87.32
2022-11-05T06:00:19.284Z,87.53
2022-11-05T06:02:47.441Z,87.11
2022-11-05T06:05:16.944Z,86.74
2022-11-05T06:07:44.981Z,87.12
2022-11-05T06:10:13.986Z,87.25
2022-11-05T06:12:43.579Z,87.97
2022-11-05T06:15:11.982Z,86.73
2022-11-05T06:17:40.957Z,87.52
2022-11-05T06:20:12.141Z,86.61
2022-11-05T06:22:42.179Z,86.77
2022-11-05T06:25:11.178Z,87.02
2022-11-05T06:27:39.127Z,87.03
2022-11-05T06:30:10.062Z,87.30
2022-11-05T06:32:38.012Z,86.42
2022-11-05T06:35:06.819Z,87.10
2022-11-05T06:37:34.832Z,87.06
2022-11-05T06:40:02.987Z,87.26
2022-11-05T06:42:31.028Z,85.77
2022-11-05T06:44:59.025Z,85.82
2022-11-05T06:47:28.874Z,86.35
2022-11-05T06:49:57.412Z,86.23
2022-11-05T06:52:27.208Z,86.06
2022-11-05T06:54:55.149Z,85.98
2022-11-05T06:57:23.164Z,86.25
2022-11-05T06:59:53.556Z,85.76
2022-11-05T07:02:25.274Z,86.07
2022-11-05T07:04:54.697Z,86.43
2022-11-05T07:07:23.694Z,85.33
2022-11-05T07:09:53.333Z,84.89
2022-11-05T07:12:22.630Z,85.26
2022-11-05T07:14:50.621Z,85.14
2022-11-05T07:17:18.891Z,84.95
2022-11-05T07:19:46.913Z,84.51
2022-11-05T07:22:16.453Z,84.04
2022-11-05T07:24:47.289Z,83.83
2022-11-05T07:27:15.453Z,84.14
2022-11-05T07:29:43.489Z,84.04
2022-11-05T07:32:11.529Z,85.06
2022-11-05T07:34:39.536Z,84.13
2022-11-05T07:37:07.743Z,84.15
2022-11-05T07:39:37.390Z,84.96
2022-11-05T07:42:05.600Z,85.79
2022-11-05T07:44:35.220Z,86.36
2022-11-05T07:47:03.226Z,84.64
2022-11-05T07:49:31.291Z,85.36
2022-11-05T07:51:59.277Z,84.47
2022-11-05T07:54:27.317Z,85.86
2022-11-05T07:56:56.696Z,85.22
2022-11-05T07:59:24.690Z,85.67
2022-11-05T08:01:52.912Z,84.54
2022-11-05T08:04:21.017Z,84.03
2022-11-05T08:06:49.104Z,84.67
2022-11-05T08:09:17.222Z,84.71
2022-11-05T08:11:45.282Z,83.89
2022-11-05T08:14:14.730Z,84.56
2022-11-05T08:16:42.748Z,83.67
2022-11-05T08:19:10.842Z,83.35
2022-11-05T08:21:41.743Z,84.27
2022-11-05T08:24:10.460Z,84.14
2022-11-05T08:26:38.683Z,83.57
2022-11-05T08:29:06.735Z,84.32
2022-11-05T08:31:37.165Z,84.39
2022-11-05T08:34:05.158Z,83.94
2022-11-05T08:36:36.369Z,83.85
2022-11-05T08:39:04.640Z,84.47
2022-11-05T08:41:32.646Z,83.61
2022-11-05T08:44:00.677Z,83.73
2022-11-05T08:46:28.591Z,82.36
2022-11-05T08:48:58.932Z,82.98
2022-11-05T08:51:26.999Z,82.68
2022-11-05T08:53:55.059Z,83.60
2022-11-05T08:56:23.315Z,82.63
2022-11-05T08:58:51.425Z,82.76
2022-11-05T09:01:20.515Z,82.80
2022-11-05T09:03:51.861Z,83.41
2022-11-05T09:06:24.393Z,82.35
2022-11-05T09:08:52.460Z,82.20
2022-11-05T09:11:20.553Z,82.77
2022-11-05T09:13:48.568Z,83.53
2022-11-05T09:16:21.902Z,81.95
2022-11-05T09:18:50.412Z,82.28
2022-11-05T09:21:18.735Z,81.59
2022-11-05T09:23:48.648Z,82.28
2022-11-05T09:26:16.770Z,81.60
2022-11-05T09:28:44.821Z,80.73
2022-11-05T09:31:13.118Z,80.39
2022-11-05T09:33:42.744Z,80.76
2022-11-05T09:36:10.943Z,80.40
2022-11-05T09:38:38.935Z,80.70
2022-11-05T09:41:13.617Z,81.88
2022-11-05T09:43:44.636Z,80.91
2022-11-05T09:46:18.859Z,80.99
2022-11-05T09:48:49.192Z,81.88
2022-11-05T09:51:23.429Z,81.02
2022-11-05T09:53:53.644Z,81.62
2022-11-05T09:56:26.183Z,81.67
2022-11-05T09:58:59.753Z,81.10
2022-11-05T10:01:33.196Z,81.28
2022-11-05T10:04:08.360Z,81.65
2022-11-05T10:06:43.407Z,80.36
2022-11-05T10:09:19.284Z,80.31
2022-11-05T10:11:51.067Z,80.37
2022-11-05T10:14:24.610Z,80.76
2022-11-05T10:16:58.932Z,80.18
2022-11-05T10:19:37.335Z,80.04
2022-11-05T10:22:12.121Z,80.27
2022-11-05T10:24:43.700Z,80.57
2022-11-05T10:27:17.618Z,81.78
2022-11-05T10:29:46.278Z,80.40
2022-11-05T10:32:23.147Z,80.63
2022-11-05T10:34:51.753Z,81.34
2022-11-05T10:37:21.771Z,80.09
2022-11-05T10:39:50.192Z,81.06
2022-11-05T10:42:40.563Z,82.06
2022-11-05T10:45:17.474Z,81.11
2022-11-05T10:47:59.185Z,80.53
2022-11-05T10:50:29.548Z,80.78
2022-11-05T10:53:02.043Z,81.34
2022-11-05T10:55:33.125Z,80.75
2022-11-05T10:58:20.626Z,80.31
2022-11-05T11:01:04.318Z,80.54
2022-11-05T11:03:38.625Z,80.96
2022-11-05T11:06:14.521Z,80.19
2022-11-05T11:08:44.961Z,79.63
2022-11-05T11:11:25.749Z,80.25
2022-11-05T11:14:03.533Z,79.56
2022-11-05T11:16:37.611Z,80.02
2022-11-05T11:19:21.951Z,81.62
2022-11-05T11:22:19.738Z,80.19
2022-11-05T11:24:50.086Z,81.11
2022-11-05T11:27:29.553Z,80.82
2022-11-05T11:30:01.704Z,81.16
2022-11-05T11:32:37.635Z,81.11
2022-11-05T11:35:21.969Z,79.58
2022-11-05T11:37:53.082Z,79.96
2022-11-05T11:40:24.238Z,79.75
2022-11-05T11:42:56.256Z,80.47
2022-11-05T11:45:29.172Z,80.43
2022-11-05T11:47:58.456Z,80.85
2022-11-05T11:50:40.202Z,78.92
2022-11-05T11:53:30.156Z,79.82
2022-11-05T11:56:14.728Z,80.00
2022-11-05T11:58:46.198Z,79.62
2022-11-05T12:01:38.709Z,79.36
2022-11-05T12:04:21.065Z,78.59
2022-11-05T12:06:56.534Z,78.56
2022-11-05T12:09:35.720Z,79.54
2022-11-05T12:12:09.283Z,78.30
2022-11-05T12:14:46.788Z,78.59
2022-11-05T12:17:39.267Z,77.38
2022-11-05T12:20:32.948Z,79.06
2022-11-05T12:23:27.477Z,78.66
2022-11-05T12:26:04.182Z,78.81
2022-11-05T12:29:16.725Z,77.60
2022-11-05T12:31:47.536Z,78.55
2022-11-05T12:34:38.779Z,78.62
2022-11-05T12:37:17.099Z,79.03
2022-11-05T12:39:56.794Z,79.79
2022-11-05T12:42:40.925Z,79.44
2022-11-05T12:45:24.121Z,78.13
2022-11-05T12:48:04.941Z,79.18
2022-11-05T12:50:41.063Z,78.17
2022-11-05T12:53:33.779Z,78.61
2022-11-05T12:56:07.757Z,79.27
2022-11-05T12:58:41.062Z,78.70
2022-11-05T13:01:14.989Z,78.71
2022-11-05T13:03:50.713Z,79.13
2022-11-05T13:06:24.047Z,79.20
2022-11-05T13:08:59.835Z,78.96
2022-11-05T13:11:34.166Z,79.34
2022-11-05T13:14:07.713Z,79.46
2022-11-05T13:16:38.893Z,78.90
2022-11-05T13:19:18.021Z,79.80
2022-11-05T13:21:53.362Z,79.27
2022-11-05T13:24:26.460Z,78.97
2022-11-05T13:27:01.227Z,78.55
2022-11-05T13:29:39.065Z,78.84
2022-11-05T13:32:17.675Z,77.92
2022-11-05T13:34:46.913Z,78.52
2022-11-05T13:37:40.855Z,78.95
2022-11-05T13:40:11.932Z,78.85
2022-11-05T13:43:17.445Z,79.12
2022-11-05T13:46:11.606Z,79.47
2022-11-05T13:49:11.827Z,78.93
2022-11-05T13:51:52.769Z,78.63
2022-11-05T13:54:53.546Z,78.68
2022-11-05T13:57:47.914Z,78.99
2022-11-05T14:00:20.201Z,79.19
2022-11-05T14:02:53.204Z,79.67
2022-11-05T14:05:25.953Z,79.51
2022-11-05T14:07:54.927Z,79.22
2022-11-05T14:10:32.443Z,80.56
2022-11-05T14:13:07.817Z,79.13
2022-11-05T14:15:36.133Z,79.59
2022-11-05T14:18:06.300Z,79.28
2022-11-05T14:20:59.720Z,79.37
2022-11-05T14:23:49.963Z,79.02
2022-11-05T14:26:26.260Z,79.16
2022-11-05T14:29:24.429Z,79.45
2022-11-05T14:32:13.331Z,80.10
2022-11-05T14:34:48.381Z,80.23
2022-11-05T14:37:24.479Z,80.37
2022-11-05T14:39:53.537Z,80.56
2022-11-05T14:42:25.623Z,80.86
2022-11-05T14:45:02.436Z,80.54
2022-11-05T14:47:33.473Z,80.80
2022-11-05T14:50:08.131Z,81.38
2022-11-05T14:52:36.931Z,80.56
2022-11-05T14:55:05.569Z,81.32
2022-11-05T14:58:24.956Z,81.68
2022-11-05T15:00:55.525Z,81.59
2022-11-05T15:04:02.261Z,81.41
2022-11-05T15:06:35.694Z,81.18
2022-11-05T15:09:17.113Z,81.59
2022-11-05T15:11:53.467Z,81.62
2022-11-05T15:14:25.651Z,81.46
2022-11-05T15:16:57.575Z,82.63
2022-11-05T15:19:30.798Z,82.48
2022-11-05T15:22:00.887Z,82.90
2022-11-05T15:24:29.267Z,82.12
2022-11-05T15:27:04.642Z,82.76
2022-11-05T15:29:35.067Z,82.25
2022-11-05T15:32:04.554Z,82.32
2022-11-05T15:47:15.382Z,83.59
2022-11-05T15:49:45.281Z,83.54
2022-11-05T15:52:15.234Z,83.54
2022-11-05T15:54:43.890Z,83.43
2022-11-05T15:57:25.957Z,83.60
2022-11-05T15:59:55.306Z,83.51
2022-11-05T16:02:33.893Z,83.59
2022-11-05T16:05:10.601Z,83.86
2022-11-05T16:07:43.294Z,83.87
2022-11-05T16:10:20.269Z,84.21
2022-11-05T16:12:48.657Z,84.20
2022-11-05T16:15:23.309Z,83.79
2022-11-05T16:17:56.043Z,84.01
2022-11-05T16:20:28.748Z,84.29
2022-11-05T16:22:59.561Z,84.33
2022-11-05T16:25:36.350Z,84.12
2022-11-05T16:28:05.379Z,84.11
2022-11-05T16:30:34.224Z,84.36
2022-11-05T16:33:08.926Z,84.30
2022-11-05T16:35:40.645Z,84.30
2022-11-05T16:38:13.046Z,84.65
2022-11-05T16:40:41.370Z,84.72
2022-11-05T16:43:20.127Z,84.56
2022-11-05T16:45:48.878Z,85.09
2022-11-05T16:48:18.401Z,85.37
2022-11-05T16:50:47.763Z,86.08
2022-11-05T16:53:16.173Z,86.05
2022-11-05T16:55:46.234Z,86.10
2022-11-05T16:58:20.452Z,87.20
2022-11-05T17:00:49.372Z,87.22
2022-11-05T17:03:19.334Z,86.68
2022-11-05T17:05:47.872Z,87.52
2022-11-05T17:08:16.175Z,87.68
2022-11-05T17:10:44.375Z,87.74
2022-11-05T17:13:16.238Z,88.13
2022-11-05T17:15:45.842Z,88.43
2022-11-05T17:18:18.515Z,88.29
2022-11-05T17:20:57.111Z,88.39
2022-11-05T17:23:28.873Z,88.63
2022-11-05T17:26:02.236Z,89.25
2022-11-05T17:28:31.272Z,89.72
2022-11-05T17:31:00.704Z,89.50
2022-11-05T17:33:29.398Z,89.97
2022-11-05T17:36:06.904Z,89.44
2022-11-05T17:38:35.670Z,89.92
2022-11-05T17:41:11.627Z,89.88
2022-11-05T17:43:40.327Z,89.83
2022-11-05T17:46:10.139Z,90.01
2022-11-05T17:48:39.412Z,90.36
2022-11-05T17:51:18.778Z,90.12
2022-11-05T17:53:49.158Z,90.07
2022-11-05T17:56:30.545Z,90.42
2022-11-05T17:59:03.466Z,90.28
2022-11-05T18:01:33.988Z,90.33
2022-11-05T18:04:08.654Z,90.56
2022-11-05T18:06:40.664Z,90.49
2022-11-05T18:09:11.087Z,90.76
2022-11-05T18:11:45.863Z,90.76
2022-11-05T18:14:14.389Z,90.61
2022-11-05T18:16:43.079Z,90.78
2022-11-05T18:19:13.805Z,91.04
2022-11-05T18:21:46.108Z,90.90
2022-11-05T18:24:14.384Z,91.01
2022-11-05T18:26:43.678Z,90.98
2022-11-05T18:29:12.186Z,91.24
2022-11-05T18:31:42.321Z,91.01
2022-11-05T18:34:11.457Z,91.19
2022-11-05T18:36:39.799Z,91.35
2022-11-05T18:39:09.854Z,91.19
2022-11-05T18:41:38.012Z,91.02
2022-11-05T18:44:06.449Z,91.22
2022-11-05T18:46:57.055Z,91.10
2022-11-05T18:49:24.882Z,90.88
2022-11-05T18:51:53.064Z,91.15
2022-11-05T18:54:23.678Z,91.24
2022-11-05T18:56:51.863Z,90.98
2022-11-05T18:59:38.681Z,91.40
2022-11-05T19:02:08.545Z,91.12
2022-11-05T19:04:37.114Z,91.69
2022-11-05T19:07:06.157Z,91.85
2022-11-05T19:09:36.612Z,91.65
2022-11-05T19:12:05.918Z,91.51
2022-11-05T19:14:34.949Z,91.61
2022-11-05T19:17:04.346Z,91.41
2022-11-05T19:19:32.476Z,91.72
2022-11-05T19:22:00.673Z,91.42
2022-11-05T19:24:29.422Z,91.80
2022-11-05T19:26:59.425Z,91.77
2022-11-05T19:29:27.674Z,91.39
2022-11-05T19:31:55.656Z,91.55
2022-11-05T19:34:23.963Z,92.06
2022-11-05T19:36:54.269Z,91.54
2022-11-05T19:39:22.451Z,91.93
2022-11-05T19:41:50.663Z,92.32
2022-11-05T19:44:20.382Z,92.14
2022-11-05T19:46:49.228Z,92.01
2022-11-05T19:49:17.835Z,91.68
2022-11-05T19:51:46.213Z,91.74
2022-11-05T19:54:14.547Z,91.62
2022-11-05T19:56:42.854Z,91.77
2022-11-05T19:59:13.104Z,91.74
2022-11-05T20:01:43.201Z,91.70
2022-11-05T20:04:12.622Z,92.13
2022-11-05T20:06:43.196Z,92.08
2022-11-05T20:09:21.583Z,91.70
2022-11-05T20:11:52.534Z,91.93
2022-11-05T20:14:27.605Z,91.96
2022-11-05T20:16:57.341Z,91.95
2022-11-05T20:19:26.017Z,91.94
2022-11-05T20:21:54.346Z,91.81
2022-11-05T20:24:25.488Z,91.85
2022-11-05T20:26:55.365Z,92.39
2022-11-05T20:29:27.806Z,92.28
2022-11-05T20:32:03.227Z,92.31
2022-11-05T20:34:32.982Z,92.39
2022-11-05T20:37:01.403Z,91.95
2022-11-05T20:39:30.168Z,91.94
2022-11-05T20:42:00.606Z,91.78
2022-11-05T20:44:29.378Z,91.81
2022-11-05T20:46:57.692Z,92.07
2022-11-05T20:49:27.260Z,91.74
2022-11-05T20:51:55.713Z,91.91
2022-11-05T20:54:24.177Z,92.05
2022-11-05T20:56:52.349Z,92.05
2022-11-05T20:59:21.000Z,91.52
2022-11-05T21:01:51.857Z,91.63
2022-11-05T21:04:20.372Z,91.71
2022-11-05T21:06:49.918Z,91.63
2022-11-05T21:09:18.175Z,92.23
2022-11-05T21:12:03.903Z,91.56
2022-11-05T21:14:34.097Z,91.66
2022-11-05T21:17:02.508Z,91.26
2022-11-05T21:19:33.168Z,91.56
2022-11-05T21:22:03.507Z,91.63
2022-11-05T21:24:33.709Z,91.75
2022-11-05T21:27:02.777Z,91.26
2022-11-05T21:29:31.452Z,91.94
2022-11-05T21:32:00.692Z,91.54
2022-11-05T21:34:29.265Z,91.86
2022-11-05T21:36:57.622Z,91.39
2022-11-05T21:39:27.861Z,91.58
2022-11-05T21:41:55.993Z,91.92
2022-11-05T21:44:25.607Z,91.23
2022-11-05T21:46:58.088Z,91.33
2022-11-05T21:49:26.850Z,91.41
2022-11-05T21:52:12.672Z,91.38
2022-11-05T21:55:00.641Z,91.10
2022-11-05T21:57:46.271Z,91.11
2022-11-05T22:00:15.259Z,91.26
2022-11-05T22:02:44.124Z,91.18
2022-11-05T22:05:14.295Z,91.29
2022-11-05T22:07:42.862Z,91.29
2022-11-05T22:10:16.401Z,91.18
2022-11-05T22:12:51.446Z,90.93
2022-11-05T22:15:19.750Z,91.11
2022-11-05T22:17:51.622Z,90.98
2022-11-05T22:20:20.188Z,91.15
2022-11-05T22:22:48.251Z,90.80
2022-11-05T22:25:18.183Z,90.90
2022-11-05T22:27:46.511Z,91.12
2022-11-05T22:30:21.777Z,91.06
2022-11-05T22:32:50.140Z,90.88
2022-11-05T22:35:18.382Z,90.84
2022-11-05T22:37:46.597Z,91.06
2022-11-05T22:40:14.725Z,90.87
2022-11-05T22:42:44.443Z,90.55
2022-11-05T22:45:12.822Z,90.90
2022-11-05T22:47:42.550Z,90.54
2022-11-05T22:50:11.332Z,90.57
2022-11-05T22:52:39.484Z,90.42
2022-11-05T22:55:07.958Z,90.57
2022-11-05T22:57:36.000Z,90.55
2022-11-05T23:00:14.098Z,90.95
2022-11-05T23:02:42.229Z,90.73
2022-11-05T23:05:10.967Z,90.19
2022-11-05T23:07:58.515Z,90.11
2022-11-05T23:10:45.836Z,90.31
2022-11-05T23:13:13.984Z,89.90
2022-11-05T23:16:01.224Z,90.20
2022-11-05T23:18:48.895Z,90.00
2022-11-05T23:21:42.966Z,90.28
2022-11-05T23:24:12.500Z,90.12
2022-11-05T23:26:54.074Z,90.41
2022-11-05T23:29:24.455Z,90.42
2022-11-05T23:32:11.501Z,90.10
2022-11-05T23:34:40.008Z,89.77
2022-11-05T23:37:25.688Z,90.02
2022-11-05T23:39:53.817Z,89.87
2022-11-05T23:42:45.641Z,89.45
2022-11-05T23:45:33.007Z,89.86
2022-11-05T23:48:25.322Z,89.89
2022-11-05T23:50:59.907Z,90.42
2022-11-05T23:53:30.025Z,89.57
2022-11-05T23:56:04.229Z,89.80
2022-11-05T23:58:33.198Z,89.65
